createdAt,value
2023-03-30T00:01:28.824Z,2.90
2023-03-30T00:03:55.799Z,2.45
2023-03-30T00:06:23.128Z,4.22
2023-03-30T00:08:53.516Z,2.63
2023-03-30T00:11:23.121Z,2.88
2023-03-30T00:13:50.725Z,3.83
2023-03-30T00:16:18.121Z,2.65
2023-03-30T00:18:45.383Z,4.07
2023-03-30T00:21:12.395Z,3.83
2023-03-30T00:23:40.325Z,3.25
2023-03-30T00:26:10.074Z,3.47
2023-03-30T00:28:36.998Z,2.63
2023-03-30T00:31:04.239Z,2.63
2023-03-30T00:33:44.786Z,2.55
2023-03-30T00:36:13.866Z,3.30
2023-03-30T00:38:41.052Z,2.30
2023-03-30T00:41:09.357Z,3.13
2023-03-30T00:43:59.443Z,3.25
2023-03-30T00:46:26.644Z,3.70
2023-03-30T00:48:58.106Z,2.75
2023-03-30T00:51:27.860Z,2.92
2023-03-30T00:54:00.048Z,3.28
2023-03-30T00:56:30.326Z,2.13
2023-03-30T00:58:57.340Z,3.17
2023-03-30T01:01:29.064Z,2.70
2023-03-30T01:04:00.082Z,3.28
2023-03-30T01:06:30.133Z,3.05
2023-03-30T01:09:00.666Z,4.25
2023-03-30T01:11:27.938Z,2.58
2023-03-30T01:14:00.212Z,4.10
2023-03-30T01:16:30.326Z,3.47
2023-03-30T01:19:48.237Z,3.17
2023-03-30T01:22:41.297Z,6.38
2023-03-30T01:25:43.365Z,2.80
2023-03-30T01:28:41.938Z,2.42
2023-03-30T01:31:37.562Z,3.45
2023-03-30T01:34:16.193Z,2.00
2023-03-30T01:36:52.010Z,3.58
2023-03-30T01:42:05.598Z,3.50
2023-03-30T01:44:50.758Z,4.03
2023-03-30T01:47:45.665Z,5.07
2023-03-30T01:50:31.625Z,4.43
2023-03-30T01:53:10.309Z,5.65
2023-03-30T01:55:45.004Z,3.47
2023-03-30T01:58:44.857Z,3.97
2023-03-30T02:01:14.521Z,3.78
2023-03-30T02:03:46.594Z,4.00
2023-03-30T02:06:20.608Z,3.88
2023-03-30T02:08:49.663Z,4.07
2023-03-30T02:11:16.582Z,5.15
2023-03-30T02:13:44.636Z,5.28
2023-03-30T02:16:28.950Z,4.53
2023-03-30T02:18:56.061Z,5.30
2023-03-30T02:21:22.998Z,4.70
2023-03-30T02:23:52.936Z,4.07
2023-03-30T02:26:19.862Z,3.05
2023-03-30T02:28:47.523Z,5.38
2023-03-30T02:31:16.462Z,4.75
2023-03-30T02:34:10.532Z,4.55
2023-03-30T02:36:53.800Z,3.80
2023-03-30T02:39:24.389Z,3.03
2023-03-30T02:42:10.152Z,4.20
2023-03-30T02:44:37.684Z,5.40
2023-03-30T02:47:30.419Z,4.47
2023-03-30T02:50:10.392Z,6.93
2023-03-30T02:52:46.427Z,3.58
2023-03-30T02:55:42.037Z,4.10
2023-03-30T02:58:23.821Z,4.53
2023-03-30T03:00:52.229Z,3.78
2023-03-30T03:03:31.700Z,3.58
2023-03-30T03:06:02.624Z,5.93
2023-03-30T03:08:34.468Z,5.80
2023-03-30T03:11:01.925Z,4.78
2023-03-30T03:13:29.135Z,3.80
2023-03-30T03:15:56.976Z,2.95
2023-03-30T03:18:24.580Z,4.20
2023-03-30T03:20:51.595Z,3.63
2023-03-30T03:23:18.480Z,4.82
2023-03-30T03:25:45.405Z,4.15
2023-03-30T03:28:12.396Z,3.47
2023-03-30T03:30:39.338Z,3.22
2023-03-30T03:33:06.507Z,5.07
2023-03-30T03:35:33.690Z,5.95
2023-03-30T03:38:00.814Z,7.22
2023-03-30T03:40:27.760Z,4.88
2023-03-30T03:42:54.612Z,5.43
2023-03-30T03:45:21.387Z,3.22
2023-03-30T03:47:51.395Z,4.38
2023-03-30T03:50:18.684Z,4.25
2023-03-30T03:52:45.848Z,3.97
2023-03-30T03:55:13.013Z,5.18
2023-03-30T03:57:40.198Z,4.60
2023-03-30T04:00:15.649Z,5.47
2023-03-30T04:02:43.705Z,5.45
2023-03-30T04:05:11.101Z,3.00
2023-03-30T04:07:38.103Z,4.50
2023-03-30T04:10:06.386Z,6.53
2023-03-30T04:12:33.547Z,5.80
2023-03-30T04:15:00.320Z,4.65
2023-03-30T04:17:28.224Z,4.07
2023-03-30T04:19:55.472Z,4.15
2023-03-30T04:22:26.174Z,3.28
2023-03-30T04:24:53.881Z,6.78
2023-03-30T04:27:20.627Z,4.32
2023-03-30T04:29:47.392Z,5.07
2023-03-30T04:32:14.356Z,4.90
2023-03-30T04:34:44.383Z,6.00
2023-03-30T04:37:11.407Z,5.75
2023-03-30T04:39:38.594Z,3.03
2023-03-30T04:42:06.283Z,4.00
2023-03-30T04:44:33.104Z,3.70
2023-03-30T04:46:59.881Z,5.60
2023-03-30T04:49:26.687Z,4.22
2023-03-30T04:51:54.658Z,3.25
2023-03-30T04:54:21.577Z,4.72
2023-03-30T04:56:48.681Z,3.53
2023-03-30T04:59:15.970Z,4.25
2023-03-30T05:01:43.262Z,4.78
2023-03-30T05:04:10.123Z,4.18
2023-03-30T05:06:36.926Z,4.47
2023-03-30T05:09:03.957Z,6.88
2023-03-30T05:11:30.715Z,5.88
2023-03-30T05:13:57.584Z,4.35
2023-03-30T05:16:24.401Z,5.47
2023-03-30T05:18:51.861Z,6.57
2023-03-30T05:21:18.716Z,8.10
2023-03-30T05:23:45.511Z,5.95
2023-03-30T05:26:12.397Z,5.70
2023-03-30T05:28:39.238Z,5.18
2023-03-30T05:31:06.884Z,5.13
2023-03-30T05:33:33.916Z,4.07
2023-03-30T05:36:00.914Z,6.25
2023-03-30T05:38:27.860Z,4.97
2023-03-30T05:40:54.667Z,5.90
2023-03-30T05:43:21.832Z,6.20
2023-03-30T05:45:49.051Z,4.78
2023-03-30T05:48:16.247Z,5.40
2023-03-30T05:50:43.139Z,7.78
2023-03-30T05:53:10.152Z,5.43
2023-03-30T05:55:36.997Z,5.95
2023-03-30T05:58:04.169Z,6.47
2023-03-30T06:00:36.725Z,5.25
2023-03-30T06:03:04.451Z,7.63
2023-03-30T06:05:33.829Z,7.85
2023-03-30T06:08:00.935Z,6.55
2023-03-30T06:10:28.195Z,12.18
2023-03-30T06:12:54.980Z,8.02
2023-03-30T06:15:22.171Z,6.55
2023-03-30T06:17:50.033Z,7.28
2023-03-30T06:20:17.026Z,6.65
2023-03-30T06:22:43.893Z,6.93
2023-03-30T06:25:10.935Z,9.68
2023-03-30T06:27:37.748Z,5.97
2023-03-30T06:30:05.272Z,6.13
2023-03-30T06:32:32.127Z,8.18
2023-03-30T06:34:58.919Z,5.90
2023-03-30T06:37:25.756Z,7.93
2023-03-30T06:39:52.732Z,7.43
2023-03-30T06:42:19.660Z,6.25
2023-03-30T06:44:47.579Z,7.75
2023-03-30T06:47:16.231Z,9.02
2023-03-30T06:49:43.073Z,5.32
2023-03-30T06:52:11.406Z,7.32
2023-03-30T06:54:38.206Z,6.75
2023-03-30T06:57:05.299Z,6.30
2023-03-30T06:59:37.070Z,5.32
2023-03-30T07:02:04.234Z,7.10
2023-03-30T07:04:31.231Z,7.75
2023-03-30T07:06:58.241Z,7.07
2023-03-30T07:09:27.903Z,6.03
2023-03-30T07:11:56.284Z,5.05
2023-03-30T07:14:23.629Z,5.97
2023-03-30T07:16:56.107Z,5.70
2023-03-30T07:19:25.598Z,6.03
2023-03-30T07:21:52.711Z,4.97
2023-03-30T07:24:19.700Z,9.10
2023-03-30T07:26:50.196Z,6.57
2023-03-30T07:29:17.662Z,7.25
2023-03-30T07:31:47.422Z,4.60
2023-03-30T07:34:17.168Z,9.20
2023-03-30T07:36:49.805Z,8.13
2023-03-30T07:39:19.212Z,7.40
2023-03-30T07:41:46.456Z,6.18
2023-03-30T07:44:13.339Z,8.55
2023-03-30T07:46:41.155Z,10.52
2023-03-30T07:49:08.314Z,5.63
2023-03-30T07:51:35.471Z,6.75
2023-03-30T07:54:02.887Z,6.68
2023-03-30T07:56:29.772Z,7.03
2023-03-30T07:58:57.122Z,5.20
2023-03-30T08:01:24.057Z,6.10
2023-03-30T08:03:50.923Z,7.50
2023-03-30T08:06:17.708Z,6.53
2023-03-30T08:08:44.514Z,10.27
2023-03-30T08:11:12.659Z,6.03
2023-03-30T08:13:39.661Z,9.93
2023-03-30T08:16:08.876Z,7.15
2023-03-30T08:18:37.089Z,6.28
2023-03-30T08:21:04.892Z,7.63
2023-03-30T08:23:31.958Z,9.13
2023-03-30T08:25:59.949Z,6.55
2023-03-30T08:28:27.332Z,8.00
2023-03-30T08:30:54.705Z,7.25
2023-03-30T08:33:23.172Z,6.68
2023-03-30T08:35:51.061Z,7.30
2023-03-30T08:38:18.969Z,8.00
2023-03-30T08:40:47.826Z,4.97
2023-03-30T08:43:36.780Z,5.38
2023-03-30T08:46:04.058Z,5.68
2023-03-30T08:48:37.622Z,6.80
2023-03-30T08:51:22.856Z,3.80
2023-03-30T08:54:04.071Z,4.90
2023-03-30T08:56:34.811Z,5.65
2023-03-30T08:59:23.261Z,5.55
2023-03-30T09:01:55.305Z,5.43
2023-03-30T09:04:41.881Z,4.22
2023-03-30T09:07:21.820Z,5.90
2023-03-30T09:09:53.201Z,4.60
2023-03-30T09:12:24.987Z,6.25
2023-03-30T09:14:58.142Z,7.97
2023-03-30T09:17:32.527Z,7.82
2023-03-30T09:20:26.954Z,6.22
2023-03-30T09:22:56.656Z,7.07
2023-03-30T09:25:34.467Z,4.35
2023-03-30T09:28:07.093Z,5.38
2023-03-30T09:30:48.341Z,5.55
2023-03-30T09:33:43.802Z,5.70
2023-03-30T09:36:33.399Z,5.80
2023-03-30T09:39:00.182Z,4.75
2023-03-30T09:41:54.875Z,5.38
2023-03-30T09:44:37.191Z,4.22
2023-03-30T09:47:25.204Z,3.80
2023-03-30T09:50:32.312Z,3.58
2023-03-30T09:53:01.619Z,5.65
2023-03-30T09:55:30.001Z,4.78
2023-03-30T09:58:32.868Z,4.70
2023-03-30T10:01:14.546Z,5.55
2023-03-30T10:03:43.441Z,3.85
2023-03-30T10:06:18.520Z,5.57
2023-03-30T10:08:52.069Z,4.22
2023-03-30T10:11:34.211Z,5.13
2023-03-30T10:14:01.455Z,4.32
2023-03-30T10:16:32.510Z,5.88
2023-03-30T10:19:02.548Z,5.05
2023-03-30T10:21:39.394Z,3.83
2023-03-30T10:24:22.173Z,6.82
2023-03-30T10:26:52.402Z,5.13
2023-03-30T10:29:22.886Z,4.93
2023-03-30T10:31:57.574Z,6.80
2023-03-30T10:34:36.624Z,5.47
2023-03-30T10:37:32.515Z,5.68
2023-03-30T10:40:02.656Z,5.22
2023-03-30T10:42:32.412Z,4.10
2023-03-30T10:45:02.539Z,3.22
2023-03-30T10:47:48.751Z,7.13
2023-03-30T10:50:46.428Z,4.37
2023-03-30T10:53:26.245Z,4.03
2023-03-30T10:56:17.117Z,4.28
2023-03-30T10:59:00.782Z,3.88
2023-03-30T11:02:01.459Z,3.33
2023-03-30T11:04:36.148Z,5.95
2023-03-30T11:07:07.703Z,6.78
2023-03-30T11:09:39.304Z,4.97
2023-03-30T11:12:12.641Z,3.85
2023-03-30T11:14:45.940Z,6.88
2023-03-30T11:17:43.716Z,3.58
2023-03-30T11:20:27.324Z,5.25
2023-03-30T11:23:37.178Z,4.72
2023-03-30T11:26:09.804Z,5.68
2023-03-30T11:28:48.901Z,4.47
2023-03-30T11:31:40.296Z,4.18
2023-03-30T11:34:23.397Z,3.38
2023-03-30T11:37:15.257Z,4.07
2023-03-30T11:39:56.764Z,3.85
2023-03-30T11:42:28.407Z,3.90
2023-03-30T11:44:55.884Z,4.10
2023-03-30T11:48:01.758Z,4.40
2023-03-30T11:50:56.259Z,3.47
2023-03-30T11:53:48.922Z,3.75
2023-03-30T11:57:03.071Z,5.28
2023-03-30T11:59:46.321Z,5.47
2023-03-30T12:02:36.295Z,3.92
2023-03-30T12:05:17.232Z,4.85
2023-03-30T12:07:55.888Z,4.82
2023-03-30T12:10:42.234Z,4.57
2023-03-30T12:13:18.341Z,4.63
2023-03-30T12:15:45.460Z,3.38
2023-03-30T12:18:27.311Z,6.43
2023-03-30T12:21:10.855Z,4.85
2023-03-30T12:23:52.942Z,3.42
2023-03-30T12:26:31.302Z,5.43
2023-03-30T12:32:04.156Z,4.32
2023-03-30T12:34:40.709Z,5.65
2023-03-30T12:37:16.284Z,6.05
2023-03-30T12:39:50.200Z,5.28
2023-03-30T12:42:39.338Z,5.35
2023-03-30T12:45:37.364Z,6.82
2023-03-30T12:48:07.669Z,6.38
2023-03-30T12:51:10.420Z,6.18
2023-03-30T12:54:08.345Z,6.13
2023-03-30T12:56:42.249Z,4.85
2023-03-30T12:59:31.820Z,3.95
2023-03-30T13:02:11.636Z,4.78
2023-03-30T13:04:43.006Z,4.03
2023-03-30T13:07:22.666Z,5.80
2023-03-30T13:09:53.912Z,5.88
2023-03-30T13:12:27.174Z,3.67
2023-03-30T13:15:04.044Z,4.82
2023-03-30T13:17:50.659Z,6.28
2023-03-30T13:20:30.085Z,2.97
2023-03-30T13:23:09.235Z,4.05
2023-03-30T13:25:57.618Z,7.05
2023-03-30T13:28:45.775Z,9.85
2023-03-30T13:31:37.486Z,3.75
2023-03-30T13:34:28.796Z,5.90
2023-03-30T13:37:07.628Z,8.43
2023-03-30T13:39:43.601Z,4.40
2023-03-30T13:42:27.813Z,6.13
2023-03-30T13:45:00.354Z,6.20
2023-03-30T13:47:51.061Z,4.63
2023-03-30T13:50:28.615Z,4.97
2023-03-30T13:52:58.935Z,3.85
2023-03-30T13:55:35.854Z,6.72
2023-03-30T13:58:16.944Z,4.72
2023-03-30T14:00:49.887Z,6.10
2023-03-30T14:03:43.637Z,4.18
2023-03-30T14:06:14.249Z,5.63
2023-03-30T14:08:45.110Z,6.00
2023-03-30T14:11:29.384Z,3.92
2023-03-30T14:13:57.165Z,4.90
2023-03-30T14:16:27.291Z,4.95
2023-03-30T14:19:17.157Z,3.47
2023-03-30T14:21:46.705Z,3.50
2023-03-30T14:24:17.826Z,4.70
2023-03-30T14:26:47.834Z,3.78
2023-03-30T14:29:30.338Z,3.90
2023-03-30T14:34:33.801Z,4.32
2023-03-30T14:37:03.833Z,4.45
2023-03-30T14:39:32.779Z,5.55
2023-03-30T14:42:14.278Z,3.53
2023-03-30T14:44:41.462Z,6.35
2023-03-30T14:47:08.576Z,5.45
2023-03-30T14:49:36.698Z,3.08
2023-03-30T14:52:52.902Z,4.93
2023-03-30T14:55:24.621Z,3.45
2023-03-30T14:57:52.041Z,2.88
2023-03-30T15:00:22.209Z,5.90
2023-03-30T15:02:57.874Z,2.85
2023-03-30T15:05:37.546Z,3.25
2023-03-30T15:08:04.929Z,5.00
2023-03-30T15:10:45.703Z,4.05
2023-03-30T15:13:26.571Z,3.58
2023-03-30T15:15:54.721Z,4.25
2023-03-30T15:18:25.875Z,3.42
2023-03-30T15:20:54.701Z,5.18
2023-03-30T15:23:22.311Z,6.57
2023-03-30T15:25:50.416Z,4.03
2023-03-30T15:28:19.493Z,6.43
2023-03-30T15:30:52.815Z,6.60
2023-03-30T15:33:20.921Z,4.90
2023-03-30T15:35:51.726Z,5.63
2023-03-30T15:38:19.641Z,6.18
2023-03-30T15:40:50.107Z,4.22
2023-03-30T15:43:30.079Z,4.18
2023-03-30T15:46:00.733Z,3.95
2023-03-30T15:48:52.543Z,3.97
2023-03-30T15:51:33.186Z,5.25
2023-03-30T15:54:04.672Z,4.45
2023-03-30T15:56:39.518Z,7.38
2023-03-30T15:59:13.616Z,4.03
2023-03-30T16:01:56.610Z,4.65
2023-03-30T16:04:24.934Z,3.67
2023-03-30T16:06:52.779Z,4.13
2023-03-30T16:09:19.638Z,4.63
2023-03-30T16:11:47.159Z,4.60
2023-03-30T16:14:17.659Z,4.38
2023-03-30T16:16:44.604Z,3.97
2023-03-30T16:19:13.595Z,3.47
2023-03-30T16:21:41.370Z,4.10
2023-03-30T16:24:09.627Z,3.90
2023-03-30T16:26:36.417Z,3.22
2023-03-30T16:29:03.651Z,2.80
2023-03-30T16:31:30.692Z,3.60
2023-03-30T16:33:57.521Z,4.50
2023-03-30T16:36:24.828Z,2.05
2023-03-30T16:38:51.724Z,4.80
2023-03-30T16:41:20.789Z,4.05
2023-03-30T16:43:48.110Z,3.85
2023-03-30T16:46:20.242Z,4.18
2023-03-30T16:48:48.918Z,4.95
2023-03-30T16:51:16.235Z,3.88
2023-03-30T16:53:43.065Z,6.80
2023-03-30T16:56:18.333Z,3.95
2023-03-30T16:58:46.184Z,4.33
2023-03-30T17:01:15.818Z,2.88
2023-03-30T17:03:42.784Z,3.67
2023-03-30T17:06:09.663Z,3.72
2023-03-30T17:08:36.662Z,3.25
2023-03-30T17:11:04.904Z,4.03
2023-03-30T17:13:32.091Z,4.07
2023-03-30T17:16:01.177Z,4.10
2023-03-30T17:18:28.933Z,2.17
2023-03-30T17:20:57.800Z,3.83
2023-03-30T17:23:27.021Z,3.38
2023-03-30T17:25:55.961Z,2.95
2023-03-30T17:28:24.219Z,3.72
2023-03-30T17:30:52.893Z,3.88
2023-03-30T17:33:20.165Z,3.67
2023-03-30T17:35:51.183Z,4.45
2023-03-30T17:38:18.037Z,4.22
2023-03-30T17:40:46.084Z,3.22
2023-03-30T17:43:12.989Z,5.63
2023-03-30T17:45:40.830Z,4.28
2023-03-30T17:48:16.537Z,3.85
2023-03-30T17:50:46.615Z,2.63
2023-03-30T17:53:17.370Z,2.67
2023-03-30T17:55:49.057Z,3.38
2023-03-30T17:58:19.924Z,5.07
2023-03-30T18:00:48.204Z,4.22
2023-03-30T18:03:16.228Z,3.17
2023-03-30T18:05:44.704Z,3.75
2023-03-30T18:08:17.799Z,3.35
2023-03-30T18:10:49.080Z,4.05
2023-03-30T18:13:16.497Z,4.30
2023-03-30T18:15:44.092Z,3.72
2023-03-30T18:18:12.469Z,3.08
2023-03-30T18:20:44.514Z,2.45
2023-03-30T18:23:11.251Z,2.45
2023-03-30T18:25:38.028Z,3.60
2023-03-30T18:28:04.831Z,1.88
2023-03-30T18:30:36.875Z,4.18
2023-03-30T18:33:05.105Z,3.50
2023-03-30T18:35:34.415Z,2.67
2023-03-30T18:38:02.349Z,3.15
2023-03-30T18:40:41.763Z,2.28
2023-03-30T18:43:08.521Z,2.83
2023-03-30T18:45:41.046Z,2.55
2023-03-30T18:48:11.616Z,2.92
2023-03-30T18:50:43.692Z,3.08
2023-03-30T18:53:13.323Z,2.70
2023-03-30T18:55:43.454Z,3.78
2023-03-30T18:58:14.665Z,2.78
2023-03-30T19:00:42.020Z,3.00
2023-03-30T19:03:08.872Z,2.25
2023-03-30T19:05:36.510Z,3.08
2023-03-30T19:08:03.436Z,1.67
2023-03-30T19:10:32.433Z,1.60
2023-03-30T19:12:59.368Z,3.55
2023-03-30T19:15:29.238Z,1.45
2023-03-30T19:17:56.121Z,2.00
2023-03-30T19:20:25.054Z,2.80
2023-03-30T19:22:52.168Z,3.08
2023-03-30T19:25:21.321Z,2.45
2023-03-30T19:28:01.893Z,1.88
2023-03-30T19:30:32.404Z,1.45
2023-03-30T19:33:02.098Z,2.72
2023-03-30T19:35:30.076Z,2.47
2023-03-30T19:37:57.188Z,2.08
2023-03-30T19:40:24.198Z,3.45
2023-03-30T19:42:51.658Z,3.15
2023-03-30T19:45:21.138Z,1.70
2023-03-30T19:47:48.077Z,2.97
2023-03-30T19:50:18.383Z,2.80
2023-03-30T19:52:50.785Z,4.00
2023-03-30T19:55:21.541Z,4.47
2023-03-30T19:57:48.413Z,2.20
2023-03-30T20:00:17.764Z,2.42
2023-03-30T20:02:48.228Z,3.20
2023-03-30T20:05:16.280Z,4.07
2023-03-30T20:07:44.403Z,2.88
2023-03-30T20:10:16.638Z,1.80
2023-03-30T20:12:43.559Z,2.35
2023-03-30T20:15:11.270Z,2.42
2023-03-30T20:17:39.054Z,2.72
2023-03-30T20:20:09.289Z,2.50
2023-03-30T20:22:37.958Z,2.28
2023-03-30T20:25:07.532Z,2.17
2023-03-30T20:27:35.574Z,3.80
2023-03-30T20:30:04.001Z,3.65
2023-03-30T20:32:31.752Z,2.78
2023-03-30T20:34:58.699Z,2.95
2023-03-30T20:37:25.609Z,2.08
2023-03-30T20:39:52.488Z,2.47
2023-03-30T20:42:26.046Z,2.90
2023-03-30T20:44:53.524Z,3.83
2023-03-30T20:47:26.150Z,2.40
2023-03-30T20:49:55.752Z,4.55
2023-03-30T20:52:23.853Z,3.20
2023-03-30T20:54:52.477Z,3.83
2023-03-30T20:57:21.673Z,3.95
2023-03-30T20:59:50.177Z,2.58
2023-03-30T21:02:17.689Z,3.92
2023-03-30T21:04:45.007Z,3.25
2023-03-30T21:07:12.778Z,2.83
2023-03-30T21:09:40.143Z,3.28
2023-03-30T21:12:09.654Z,2.80
2023-03-30T21:14:36.817Z,2.53
2023-03-30T21:17:04.101Z,3.10
2023-03-30T21:19:31.231Z,3.97
2023-03-30T21:22:00.263Z,2.28
2023-03-30T21:24:27.680Z,1.67
2023-03-30T21:26:54.637Z,2.15
2023-03-30T21:29:22.651Z,2.15
2023-03-30T21:31:49.954Z,3.20
2023-03-30T21:34:18.727Z,3.20
2023-03-30T21:36:45.962Z,2.88
2023-03-30T21:39:13.515Z,1.98
2023-03-30T21:41:40.411Z,3.67
2023-03-30T21:44:07.644Z,1.80
2023-03-30T21:46:34.655Z,3.58
2023-03-30T21:49:01.545Z,2.80
2023-03-30T21:51:30.277Z,3.25
2023-03-30T21:53:57.967Z,3.10
2023-03-30T21:56:28.933Z,3.10
2023-03-30T21:58:56.372Z,4.55
2023-03-30T22:01:24.267Z,2.13
2023-03-30T22:03:52.599Z,3.28
2023-03-30T22:06:20.547Z,2.28
2023-03-30T22:08:48.035Z,3.25
2023-03-30T22:11:20.658Z,1.90
2023-03-30T22:13:48.954Z,2.00
2023-03-30T22:16:28.482Z,3.13
2023-03-30T22:18:55.763Z,2.10
2023-03-30T22:21:25.400Z,3.05
2023-03-30T22:23:55.334Z,1.90
2023-03-30T22:26:22.492Z,2.15
2023-03-30T22:28:49.415Z,3.00
2023-03-30T22:31:16.773Z,2.03
2023-03-30T22:33:44.068Z,3.53
2023-03-30T22:36:19.324Z,2.05
2023-03-30T22:38:48.076Z,3.42
2023-03-30T22:41:15.439Z,3.30
2023-03-30T22:43:42.387Z,3.40
2023-03-30T22:46:09.885Z,3.92
2023-03-30T22:48:37.378Z,2.50
2023-03-30T22:51:08.180Z,2.35
2023-03-30T22:53:35.797Z,2.28
2023-03-30T22:56:02.869Z,3.15
2023-03-30T22:58:29.883Z,2.30
2023-03-30T23:01:05.997Z,3.38
2023-03-30T23:03:33.218Z,2.58
2023-03-30T23:06:01.619Z,1.52
2023-03-30T23:08:30.066Z,2.90
2023-03-30T23:10:57.707Z,2.67
2023-03-30T23:13:25.058Z,2.83
2023-03-30T23:15:52.035Z,2.25
2023-03-30T23:18:18.940Z,2.90
2023-03-30T23:20:46.777Z,1.85
2023-03-30T23:23:15.011Z,2.13
2023-03-30T23:25:50.182Z,3.25
2023-03-30T23:28:17.584Z,2.33
2023-03-30T23:30:47.287Z,2.65
2023-03-30T23:33:14.191Z,2.38
2023-03-30T23:35:49.372Z,2.00
2023-03-30T23:38:17.061Z,2.95
2023-03-30T23:40:43.999Z,2.17
2023-03-30T23:43:11.086Z,3.80
2023-03-30T23:45:38.665Z,1.88
2023-03-30T23:48:06.039Z,1.83
2023-03-30T23:50:35.070Z,2.28
2023-03-30T23:53:01.988Z,2.72
2023-03-30T23:55:29.138Z,2.78
2023-03-30T23:57:56.223Z,2.42
